createdAt,value
2022-10-22T00:01:06.962Z,7.19
2022-10-22T00:03:33.864Z,7.19
2022-10-22T00:06:00.578Z,7.16
2022-10-22T00:08:27.394Z,7.06
2022-10-22T00:10:54.234Z,7.17
2022-10-22T00:13:24.140Z,7.30
2022-10-22T00:15:50.927Z,7.06
2022-10-22T00:18:17.581Z,7.03
2022-10-22T00:20:44.289Z,6.99
2022-10-22T00:23:10.972Z,7.08
2022-10-22T00:25:37.700Z,6.96
2022-10-22T00:28:04.496Z,6.91
2022-10-22T00:30:31.344Z,6.88
2022-10-22T00:32:58.050Z,7.08
2022-10-22T00:35:24.720Z,7.03
2022-10-22T00:37:51.462Z,6.93
2022-10-22T00:40:18.317Z,6.32
2022-10-22T00:42:45.061Z,6.62
2022-10-22T00:45:11.688Z,6.51
2022-10-22T00:47:59.403Z,6.51
2022-10-22T00:50:40.132Z,6.71
2022-10-22T00:53:10.978Z,6.86
2022-10-22T00:55:39.191Z,6.79
2022-10-22T00:58:06.240Z,7.02
2022-10-22T01:00:33.257Z,7.00
2022-10-22T01:03:00.536Z,6.97
2022-10-22T01:05:33.214Z,6.94
2022-10-22T01:07:59.918Z,7.06
2022-10-22T01:10:52.422Z,7.17
2022-10-22T01:13:46.887Z,7.25
2022-10-22T01:16:35.053Z,7.29
2022-10-22T01:19:27.817Z,7.29
2022-10-22T01:22:05.281Z,7.20
2022-10-22T01:24:48.886Z,7.24
2022-10-22T01:27:34.455Z,7.36
2022-10-22T01:30:09.396Z,7.42
2022-10-22T01:32:48.444Z,7.45
2022-10-22T01:35:21.898Z,7.36
2022-10-22T01:37:53.565Z,7.42
2022-10-22T01:40:21.981Z,7.53
2022-10-22T01:43:10.489Z,7.51
2022-10-22T01:45:42.664Z,7.15
2022-10-22T01:48:46.856Z,7.20
2022-10-22T01:51:13.629Z,7.16
2022-10-22T01:54:04.836Z,6.81
2022-10-22T01:57:04.450Z,6.72
2022-10-22T01:59:45.066Z,6.71
2022-10-22T02:02:49.672Z,6.78
2022-10-22T02:05:25.385Z,7.08
2022-10-22T02:08:03.510Z,7.10
2022-10-22T02:10:31.217Z,6.96
2022-10-22T02:13:00.035Z,7.01
2022-10-22T02:15:30.241Z,6.99
2022-10-22T02:17:58.974Z,7.01
2022-10-22T02:20:33.122Z,7.00
2022-10-22T02:23:01.937Z,7.02
2022-10-22T02:25:32.514Z,7.09
2022-10-22T02:28:05.241Z,7.20
2022-10-22T02:30:34.168Z,7.27
2022-10-22T02:33:04.604Z,7.31
2022-10-22T02:35:32.041Z,7.52
2022-10-22T02:38:00.134Z,7.39
2022-10-22T02:40:28.913Z,7.32
2022-10-22T02:42:55.718Z,7.39
2022-10-22T02:45:23.193Z,7.44
2022-10-22T02:47:50.212Z,7.11
2022-10-22T02:50:17.308Z,7.08
2022-10-22T02:52:44.289Z,7.17
2022-10-22T02:55:11.022Z,7.26
2022-10-22T02:57:38.003Z,6.92
2022-10-22T03:00:06.795Z,6.63
2022-10-22T03:02:33.678Z,6.86
2022-10-22T03:05:00.681Z,6.59
2022-10-22T03:07:27.500Z,6.65
2022-10-22T03:09:54.173Z,6.60
2022-10-22T03:12:21.094Z,6.54
2022-10-22T03:14:47.842Z,6.50
2022-10-22T03:17:14.632Z,6.30
2022-10-22T03:19:42.251Z,6.44
2022-10-22T03:22:18.989Z,6.34
2022-10-22T03:24:47.786Z,6.46
2022-10-22T03:27:16.794Z,6.57
2022-10-22T03:29:44.267Z,6.35
2022-10-22T03:32:11.001Z,6.14
2022-10-22T03:34:37.838Z,6.52
2022-10-22T03:37:04.714Z,6.55
2022-10-22T03:39:34.603Z,6.61
2022-10-22T03:42:02.231Z,6.58
2022-10-22T03:44:29.683Z,6.54
2022-10-22T03:46:58.789Z,6.65
2022-10-22T03:49:29.037Z,6.54
2022-10-22T03:51:55.818Z,6.37
2022-10-22T03:54:22.701Z,6.20
2022-10-22T03:56:49.370Z,6.00
2022-10-22T03:59:16.286Z,6.11
2022-10-22T04:01:51.174Z,6.19
2022-10-22T04:04:17.857Z,6.09
2022-10-22T04:06:44.566Z,6.30
2022-10-22T04:09:11.331Z,6.54
2022-10-22T04:11:38.057Z,6.56
2022-10-22T04:14:04.918Z,6.61
2022-10-22T04:16:32.950Z,6.61
2022-10-22T04:18:59.985Z,6.72
2022-10-22T04:21:26.849Z,6.77
2022-10-22T04:23:53.920Z,6.62
2022-10-22T04:26:21.228Z,6.64
2022-10-22T04:28:49.909Z,6.57
2022-10-22T04:31:20.417Z,6.38
2022-10-22T04:33:47.691Z,6.40
2022-10-22T04:36:17.693Z,6.64
2022-10-22T04:38:46.685Z,6.57
2022-10-22T04:41:16.315Z,6.48
2022-10-22T04:43:43.848Z,6.29
2022-10-22T04:46:11.802Z,6.03
2022-10-22T04:48:40.465Z,6.08
2022-10-22T04:51:09.428Z,5.93
2022-10-22T04:53:37.065Z,5.76
2022-10-22T04:56:20.673Z,5.99
2022-10-22T04:59:07.339Z,6.00
2022-10-22T05:01:43.228Z,6.03
2022-10-22T05:04:16.694Z,6.01
2022-10-22T05:06:44.027Z,6.09
2022-10-22T05:09:17.117Z,6.19
2022-10-22T05:11:48.396Z,6.27
2022-10-22T05:14:23.534Z,6.30
2022-10-22T05:16:51.702Z,6.13
2022-10-22T05:19:24.197Z,6.12
2022-10-22T05:21:56.401Z,6.11
2022-10-22T05:24:23.502Z,6.24
2022-10-22T05:26:51.356Z,6.08
2022-10-22T05:29:18.345Z,6.18
2022-10-22T05:31:45.111Z,6.37
2022-10-22T05:34:12.467Z,6.55
2022-10-22T05:36:39.408Z,6.63
2022-10-22T05:39:06.218Z,6.72
2022-10-22T05:41:34.232Z,6.94
2022-10-22T05:44:01.200Z,7.11
2022-10-22T05:46:30.534Z,7.26
2022-10-22T05:49:01.213Z,7.50
2022-10-22T05:51:30.457Z,7.60
2022-10-22T05:53:59.671Z,7.93
2022-10-22T05:56:28.407Z,8.18
2022-10-22T05:58:56.525Z,8.78
2022-10-22T06:01:29.413Z,9.35
2022-10-22T06:03:59.426Z,9.77
2022-10-22T06:06:39.540Z,10.14
2022-10-22T06:09:27.999Z,10.74
2022-10-22T06:11:56.395Z,11.32
2022-10-22T06:14:24.234Z,11.05
2022-10-22T06:16:51.883Z,10.77
2022-10-22T06:19:20.785Z,11.05
2022-10-22T06:21:48.294Z,10.59
2022-10-22T06:24:15.461Z,10.71
2022-10-22T06:26:42.774Z,10.99
2022-10-22T06:29:10.048Z,11.00
2022-10-22T06:31:37.218Z,11.01
2022-10-22T06:34:10.696Z,11.28
2022-10-22T06:36:37.598Z,11.03
2022-10-22T06:39:05.581Z,11.19
2022-10-22T06:41:32.548Z,11.23
2022-10-22T06:44:00.210Z,11.72
2022-10-22T06:46:27.236Z,12.00
2022-10-22T06:48:59.490Z,12.47
2022-10-22T06:51:27.415Z,11.75
2022-10-22T06:53:55.576Z,12.08
2022-10-22T06:56:24.941Z,12.19
2022-10-22T06:58:53.365Z,12.02
2022-10-22T07:01:22.504Z,12.40
2022-10-22T07:03:51.359Z,12.87
2022-10-22T07:06:18.475Z,12.65
2022-10-22T07:08:45.204Z,13.12
2022-10-22T07:11:17.374Z,13.55
2022-10-22T07:13:44.880Z,13.79
2022-10-22T07:16:12.564Z,14.37
2022-10-22T07:18:40.659Z,13.61
2022-10-22T07:21:09.429Z,13.35
2022-10-22T07:23:36.886Z,13.96
2022-10-22T07:26:07.270Z,13.96
2022-10-22T07:28:35.032Z,14.00
2022-10-22T07:31:01.815Z,13.93
2022-10-22T07:33:28.775Z,13.44
2022-10-22T07:36:02.776Z,13.53
2022-10-22T07:38:29.888Z,13.51
2022-10-22T07:40:56.786Z,14.45
2022-10-22T07:43:24.151Z,14.15
2022-10-22T07:45:50.987Z,13.99
2022-10-22T07:48:18.198Z,14.45
2022-10-22T07:53:11.492Z,14.10
2022-10-22T07:55:38.361Z,14.79
2022-10-22T07:58:05.089Z,15.62
2022-10-22T08:00:31.968Z,15.64
2022-10-22T08:02:59.056Z,15.26
2022-10-22T08:05:25.994Z,14.99
2022-10-22T08:07:52.950Z,14.49
2022-10-22T08:10:19.690Z,14.99
2022-10-22T08:12:46.404Z,15.33
2022-10-22T08:15:13.223Z,15.11
2022-10-22T08:17:40.506Z,15.65
2022-10-22T08:20:08.388Z,15.96
2022-10-22T08:22:36.036Z,16.17
2022-10-22T08:25:02.709Z,16.64
2022-10-22T08:27:29.384Z,17.08
2022-10-22T08:29:56.137Z,17.85
2022-10-22T08:32:22.977Z,17.23
2022-10-22T08:34:49.991Z,16.77
2022-10-22T08:37:18.915Z,17.24
2022-10-22T08:39:45.774Z,17.41
2022-10-22T08:42:21.536Z,17.71
2022-10-22T08:44:56.561Z,17.47
2022-10-22T08:47:40.438Z,17.36
2022-10-22T08:50:12.296Z,17.61
2022-10-22T08:52:44.773Z,17.29
2022-10-22T08:55:16.073Z,17.29
2022-10-22T08:58:06.155Z,17.60
2022-10-22T09:00:46.187Z,18.05
2022-10-22T09:03:34.780Z,18.46
2022-10-22T09:06:22.730Z,18.83
2022-10-22T09:08:50.544Z,17.72
2022-10-22T09:11:23.829Z,17.64
2022-10-22T09:13:54.075Z,17.27
2022-10-22T09:16:25.305Z,17.42
2022-10-22T09:19:04.680Z,17.99
2022-10-22T09:21:53.968Z,17.64
2022-10-22T09:24:38.655Z,17.41
2022-10-22T09:27:29.460Z,17.63
2022-10-22T09:29:56.738Z,18.10
2022-10-22T09:32:23.691Z,18.52
2022-10-22T09:34:55.011Z,18.78
2022-10-22T09:37:27.679Z,18.71
2022-10-22T09:39:56.810Z,19.41
2022-10-22T09:42:23.801Z,19.66
2022-10-22T09:44:59.778Z,19.19
2022-10-22T09:47:43.456Z,19.12
2022-10-22T09:50:31.277Z,18.93
2022-10-22T09:53:01.579Z,18.69
2022-10-22T09:55:29.387Z,18.20
2022-10-22T09:57:59.327Z,18.59
2022-10-22T10:00:27.225Z,18.54
2022-10-22T10:02:56.635Z,18.78
2022-10-22T10:05:35.115Z,18.81
2022-10-22T10:08:15.942Z,19.40
2022-10-22T10:11:05.936Z,19.39
2022-10-22T10:13:46.537Z,20.08
2022-10-22T10:16:41.545Z,19.59
2022-10-22T10:19:27.246Z,19.18
2022-10-22T10:21:59.824Z,19.04
2022-10-22T10:24:55.015Z,19.68
2022-10-22T10:27:35.375Z,20.44
2022-10-22T10:30:11.074Z,19.90
2022-10-22T10:33:13.025Z,20.32
2022-10-22T10:35:39.862Z,21.24
2022-10-22T10:38:17.036Z,20.72
2022-10-22T10:41:19.345Z,21.00
2022-10-22T10:44:27.842Z,21.08
2022-10-22T10:47:03.584Z,21.22
2022-10-22T10:49:33.656Z,21.57
2022-10-22T10:52:20.468Z,21.41
2022-10-22T10:55:01.627Z,21.21
2022-10-22T10:58:02.476Z,22.03
2022-10-22T11:00:40.825Z,22.23
2022-10-22T11:03:31.564Z,21.83
2022-10-22T11:06:00.387Z,22.01
2022-10-22T11:08:36.049Z,21.31
2022-10-22T11:11:17.765Z,22.16
2022-10-22T11:13:47.620Z,21.49
2022-10-22T11:16:49.027Z,21.17
2022-10-22T11:19:49.676Z,20.54
2022-10-22T11:23:13.112Z,20.45
2022-10-22T11:25:40.767Z,20.32
2022-10-22T11:28:22.266Z,20.53
2022-10-22T11:31:02.945Z,21.15
2022-10-22T11:33:39.663Z,21.24
2022-10-22T11:36:08.476Z,21.46
2022-10-22T11:38:36.550Z,21.94
2022-10-22T11:41:15.984Z,21.70
2022-10-22T11:44:07.501Z,21.98
2022-10-22T11:47:09.555Z,22.51
2022-10-22T11:49:55.656Z,22.70
2022-10-22T11:52:33.034Z,22.57
2022-10-22T11:55:23.792Z,23.15
2022-10-22T11:57:50.712Z,22.31
2022-10-22T12:00:48.121Z,23.00
2022-10-22T12:03:48.048Z,22.38
2022-10-22T12:06:19.851Z,22.55
2022-10-22T12:08:49.783Z,22.60
2022-10-22T12:11:19.654Z,22.61
2022-10-22T12:14:19.054Z,22.09
2022-10-22T12:16:58.110Z,22.23
2022-10-22T12:19:39.930Z,22.58
2022-10-22T12:22:06.752Z,23.00
2022-10-22T12:24:44.717Z,23.45
2022-10-22T12:27:27.883Z,22.99
2022-10-22T12:29:59.483Z,22.69
2022-10-22T12:32:38.306Z,22.82
2022-10-22T12:35:07.970Z,22.76
2022-10-22T12:37:38.620Z,22.89
2022-10-22T12:40:45.804Z,22.99
2022-10-22T12:43:16.921Z,22.95
2022-10-22T12:45:46.232Z,22.83
2022-10-22T12:48:21.895Z,23.13
2022-10-22T12:50:54.641Z,22.99
2022-10-22T12:53:27.152Z,23.18
2022-10-22T12:55:55.926Z,22.75
2022-10-22T12:58:27.489Z,23.40
2022-10-22T13:00:57.721Z,23.09
2022-10-22T13:03:50.974Z,22.98
2022-10-22T13:06:20.814Z,22.55
2022-10-22T13:08:59.774Z,22.67
2022-10-22T13:12:04.914Z,22.52
2022-10-22T13:14:34.341Z,22.43
2022-10-22T13:17:17.429Z,21.81
2022-10-22T13:19:53.316Z,21.69
2022-10-22T13:22:38.109Z,21.44
2022-10-22T13:25:26.335Z,21.44
2022-10-22T13:27:56.915Z,21.52
2022-10-22T13:30:28.434Z,21.52
2022-10-22T13:33:05.338Z,21.44
2022-10-22T13:35:36.009Z,21.37
2022-10-22T13:38:03.383Z,21.24
2022-10-22T13:40:30.028Z,21.02
2022-10-22T13:42:56.869Z,20.76
2022-10-22T13:45:23.627Z,21.00
2022-10-22T13:47:53.700Z,21.10
2022-10-22T13:50:21.722Z,20.91
2022-10-22T13:52:53.359Z,20.82
2022-10-22T13:55:29.164Z,20.94
2022-10-22T13:58:11.116Z,20.98
2022-10-22T14:00:46.398Z,21.16
2022-10-22T14:03:16.382Z,21.23
2022-10-22T14:05:43.555Z,21.33
2022-10-22T14:08:16.130Z,21.31
2022-10-22T14:10:44.038Z,21.24
2022-10-22T14:13:11.797Z,20.95
2022-10-22T14:15:38.765Z,21.00
2022-10-22T14:18:07.522Z,21.07
2022-10-22T14:20:37.583Z,20.72
2022-10-22T14:25:52.012Z,21.07
2022-10-22T14:28:19.121Z,20.60
2022-10-22T14:30:48.716Z,20.87
2022-10-22T14:33:15.449Z,20.91
2022-10-22T14:35:42.295Z,20.72
2022-10-22T14:38:12.075Z,20.59
2022-10-22T14:40:42.754Z,20.30
2022-10-22T14:43:22.858Z,20.32
2022-10-22T14:45:50.212Z,20.14
2022-10-22T14:50:45.484Z,20.26
2022-10-22T14:53:13.754Z,20.31
2022-10-22T14:55:41.990Z,20.29
2022-10-22T14:58:09.325Z,20.40
2022-10-22T15:00:39.169Z,20.42
2022-10-22T15:03:06.013Z,20.34
2022-10-22T15:05:33.009Z,20.28
2022-10-22T15:08:00.900Z,20.18
2022-10-22T15:10:27.753Z,19.90
2022-10-22T15:12:54.526Z,19.89
2022-10-22T15:15:29.554Z,19.93
2022-10-22T15:18:02.934Z,19.84
2022-10-22T15:20:29.806Z,19.71
2022-10-22T15:22:57.926Z,19.84
2022-10-22T15:25:27.373Z,19.77
2022-10-22T15:27:58.510Z,19.53
2022-10-22T15:30:34.422Z,19.18
2022-10-22T15:33:02.076Z,18.91
2022-10-22T15:35:28.912Z,18.89
2022-10-22T15:37:55.859Z,18.82
2022-10-22T15:40:22.571Z,18.78
2022-10-22T15:42:49.229Z,18.80
2022-10-22T15:45:16.289Z,18.92
2022-10-22T15:47:48.284Z,18.76
2022-10-22T15:50:15.324Z,18.79
2022-10-22T15:52:42.126Z,18.72
2022-10-22T15:55:10.796Z,18.58
2022-10-22T15:57:39.403Z,18.32
2022-10-22T16:00:08.329Z,18.21
2022-10-22T16:02:35.045Z,18.14
2022-10-22T16:05:01.967Z,18.14
2022-10-22T16:07:29.901Z,18.00
2022-10-22T16:09:58.485Z,17.96
2022-10-22T16:12:25.275Z,17.89
2022-10-22T16:14:52.817Z,17.86
2022-10-22T16:17:19.740Z,17.87
2022-10-22T16:19:48.236Z,17.38
2022-10-22T16:22:15.810Z,17.74
2022-10-22T16:24:43.023Z,17.48
2022-10-22T16:27:10.602Z,17.75
2022-10-22T16:29:39.106Z,17.67
2022-10-22T16:32:06.311Z,17.59
2022-10-22T16:34:33.354Z,17.63
2022-10-22T16:37:00.357Z,17.63
2022-10-22T16:39:27.146Z,17.56
2022-10-22T16:41:53.899Z,17.40
2022-10-22T16:44:21.114Z,17.50
2022-10-22T16:46:47.868Z,17.48
2022-10-22T16:49:15.804Z,17.23
2022-10-22T16:51:42.746Z,17.25
2022-10-22T16:54:12.582Z,17.27
2022-10-22T16:56:39.846Z,17.27
2022-10-22T16:59:06.627Z,17.19
2022-10-22T17:01:36.858Z,17.32
2022-10-22T17:04:07.414Z,17.22
2022-10-22T17:06:34.130Z,17.14
2022-10-22T17:09:00.998Z,17.11
2022-10-22T17:11:30.328Z,17.01
2022-10-22T17:13:57.199Z,16.98
2022-10-22T17:16:25.027Z,16.89
2022-10-22T17:18:53.748Z,16.87
2022-10-22T17:21:21.759Z,16.87
2022-10-22T17:23:48.672Z,16.75
2022-10-22T17:26:20.955Z,16.68
2022-10-22T17:28:48.739Z,16.80
2022-10-22T17:31:20.467Z,16.77
2022-10-22T17:33:48.697Z,16.61
2022-10-22T17:36:17.311Z,16.68
2022-10-22T17:38:51.075Z,16.80
2022-10-22T17:41:21.812Z,16.63
2022-10-22T17:43:49.074Z,16.41
2022-10-22T17:46:21.845Z,16.69
2022-10-22T17:48:56.093Z,16.61
2022-10-22T17:51:23.778Z,16.61
2022-10-22T17:53:52.096Z,16.64
2022-10-22T17:56:24.580Z,16.65
2022-10-22T17:58:52.127Z,16.62
2022-10-22T18:01:31.645Z,16.57
2022-10-22T18:04:08.145Z,16.46
2022-10-22T18:06:35.780Z,16.53
2022-10-22T18:09:11.517Z,16.53
2022-10-22T18:11:40.741Z,16.57
2022-10-22T18:14:08.345Z,16.47
2022-10-22T18:16:35.341Z,16.33
2022-10-22T18:19:02.090Z,16.15
2022-10-22T18:21:30.259Z,16.00
2022-10-22T18:23:59.659Z,15.85
2022-10-22T18:26:27.111Z,15.96
2022-10-22T18:28:54.628Z,16.02
2022-10-22T18:31:23.527Z,15.94
2022-10-22T18:33:50.897Z,15.89
2022-10-22T18:36:20.439Z,15.98
2022-10-22T18:38:56.054Z,15.97
2022-10-22T18:41:23.055Z,16.04
2022-10-22T18:43:57.174Z,16.13
2022-10-22T18:46:24.519Z,16.06
2022-10-22T18:48:55.641Z,15.94
2022-10-22T18:51:24.314Z,15.95
2022-10-22T18:54:04.730Z,15.94
2022-10-22T18:56:32.574Z,16.04
2022-10-22T18:58:59.297Z,15.97
2022-10-22T19:01:29.485Z,16.01
2022-10-22T19:03:57.334Z,16.04
2022-10-22T19:06:30.557Z,16.02
2022-10-22T19:09:00.309Z,16.04
2022-10-22T19:11:27.635Z,16.06
2022-10-22T19:13:54.537Z,16.01
2022-10-22T19:16:27.031Z,16.04
2022-10-22T19:18:59.682Z,16.09
2022-10-22T19:21:26.589Z,16.21
2022-10-22T19:24:00.916Z,16.03
2022-10-22T19:26:29.212Z,16.19
2022-10-22T19:28:57.079Z,16.16
2022-10-22T19:31:25.268Z,16.03
2022-10-22T19:33:54.710Z,16.02
2022-10-22T19:36:24.524Z,15.85
2022-10-22T19:38:51.887Z,16.02
2022-10-22T19:41:20.208Z,16.03
2022-10-22T19:43:50.085Z,16.07
2022-10-22T19:46:17.996Z,16.15
2022-10-22T19:51:17.988Z,15.91
2022-10-22T19:53:45.122Z,15.83
2022-10-22T19:56:12.540Z,15.72
2022-10-22T19:58:39.697Z,15.61
2022-10-22T20:01:11.317Z,15.65
2022-10-22T20:03:38.884Z,15.58
2022-10-22T20:06:07.715Z,15.52
2022-10-22T20:08:38.493Z,15.64
2022-10-22T20:11:07.819Z,15.68
2022-10-22T20:13:35.453Z,15.69
2022-10-22T20:16:02.278Z,15.81
2022-10-22T20:18:29.055Z,15.86
2022-10-22T20:20:55.807Z,15.73
2022-10-22T20:23:22.616Z,15.67
2022-10-22T20:25:49.450Z,15.53
2022-10-22T20:28:17.022Z,15.58
2022-10-22T20:30:45.300Z,15.51
2022-10-22T20:33:12.136Z,15.47
2022-10-22T20:35:39.533Z,15.48
2022-10-22T20:38:07.599Z,15.35
2022-10-22T20:40:36.409Z,15.22
2022-10-22T20:43:03.113Z,15.18
2022-10-22T20:45:29.950Z,15.20
2022-10-22T20:48:02.758Z,15.21
2022-10-22T20:50:32.137Z,15.23
2022-10-22T20:52:59.620Z,15.27
2022-10-22T20:55:27.614Z,15.08
2022-10-22T20:57:54.361Z,15.01
2022-10-22T21:00:21.483Z,15.06
2022-10-22T21:02:48.170Z,14.82
2022-10-22T21:05:14.930Z,14.90
2022-10-22T21:07:42.035Z,14.98
2022-10-22T21:10:09.218Z,14.83
2022-10-22T21:12:36.149Z,14.66
2022-10-22T21:15:03.030Z,14.70
2022-10-22T21:17:29.757Z,14.68
2022-10-22T21:19:56.504Z,14.64
2022-10-22T21:22:23.275Z,14.48
2022-10-22T21:24:49.957Z,14.38
2022-10-22T21:27:16.621Z,14.36
2022-10-22T21:29:43.306Z,14.28
2022-10-22T21:32:10.010Z,14.24
2022-10-22T21:34:38.886Z,14.16
2022-10-22T21:37:06.009Z,14.08
2022-10-22T21:39:32.698Z,14.26
2022-10-22T21:41:59.458Z,14.34
2022-10-22T21:44:26.225Z,14.34
2022-10-22T21:46:52.982Z,14.36
2022-10-22T21:49:19.783Z,14.46
2022-10-22T21:51:46.829Z,14.31
2022-10-22T21:54:13.605Z,14.44
2022-10-22T21:56:41.477Z,14.39
2022-10-22T21:59:08.207Z,14.31
2022-10-22T22:01:35.811Z,14.20
2022-10-22T22:04:03.214Z,14.11
2022-10-22T22:06:33.467Z,14.03
2022-10-22T22:09:01.862Z,13.92
2022-10-22T22:11:29.512Z,13.99
2022-10-22T22:13:58.251Z,14.09
2022-10-22T22:16:29.453Z,13.98
2022-10-22T22:18:58.880Z,13.91
2022-10-22T22:21:27.186Z,13.70
2022-10-22T22:23:54.123Z,13.63
2022-10-22T22:26:26.691Z,13.69
2022-10-22T22:28:57.375Z,13.76
2022-10-22T22:31:27.598Z,13.65
2022-10-22T22:34:14.014Z,13.57
2022-10-22T22:36:43.420Z,13.56
2022-10-22T22:39:16.273Z,13.65
2022-10-22T22:41:43.425Z,13.50
2022-10-22T22:44:10.541Z,13.57
2022-10-22T22:46:37.497Z,13.43
2022-10-22T22:49:04.461Z,13.29
2022-10-22T22:51:31.429Z,13.28
2022-10-22T22:54:00.213Z,13.11
2022-10-22T22:56:29.418Z,13.07
2022-10-22T22:58:56.820Z,13.03
2022-10-22T23:01:25.119Z,13.12
2022-10-22T23:03:56.802Z,13.09
2022-10-22T23:06:25.492Z,13.13
2022-10-22T23:08:53.739Z,13.10
2022-10-22T23:11:22.000Z,13.08
2022-10-22T23:13:56.941Z,12.98
2022-10-22T23:16:26.016Z,13.02
2022-10-22T23:18:54.974Z,12.85
2022-10-22T23:21:34.139Z,12.73
2022-10-22T23:24:03.675Z,12.69
2022-10-22T23:26:40.017Z,12.71
2022-10-22T23:29:15.978Z,12.52
2022-10-22T23:31:44.613Z,12.62
2022-10-22T23:34:13.934Z,12.65
2022-10-22T23:36:40.682Z,12.69
2022-10-22T23:39:09.899Z,12.62
2022-10-22T23:41:36.935Z,12.54
2022-10-22T23:44:04.695Z,12.55
2022-10-22T23:46:32.809Z,12.31
2022-10-22T23:49:00.766Z,12.31
2022-10-22T23:51:27.906Z,12.27
2022-10-22T23:53:56.947Z,12.21
2022-10-22T23:56:24.178Z,12.01
2022-10-22T23:58:52.231Z,12.08
